Time;durP1;ratioP1;P1;durP2;ratioP2;P2;SDS_P1;SDS_P2;PMS_P1;PMS_P2;Temp;Humidity;BMP_temperature;BMP_pressure;BME280_temperature;BME280_humidity;BME280_pressure;Samples;Min_cycle;Max_cycle;Signal;HPM_P1;HPM_P2
2023/11/23 00:00:34;;;;;;;3.75;0.60;;;13.10;96.70;;;;;;5053252;28;20047;-69
2023/11/23 00:03:05;;;;;;;1.08;0.40;;;13.00;96.70;;;;;;5059315;28;20035;-69
2023/11/23 00:05:34;;;;;;;1.80;0.80;;;13.00;96.70;;;;;;5068141;28;20127;-69
2023/11/23 00:08:03;;;;;;;1.55;0.50;;;13.00;96.70;;;;;;5074972;28;20060;-70
2023/11/23 00:10:31;;;;;;;3.90;0.47;;;13.00;96.70;;;;;;5072114;28;20033;-68
2023/11/23 00:13:01;;;;;;;1.92;0.32;;;13.00;96.70;;;;;;5074846;28;20047;-69
2023/11/23 00:15:30;;;;;;;1.95;0.63;;;13.00;96.70;;;;;;5084005;28;20044;-69
2023/11/23 00:17:59;;;;;;;1.95;0.65;;;12.90;96.70;;;;;;5075455;28;20087;-69
2023/11/23 00:20:29;;;;;;;4.90;0.60;;;13.00;96.70;;;;;;5087109;28;20158;-69
2023/11/23 00:22:58;;;;;;;4.53;0.63;;;13.00;96.70;;;;;;5074725;28;20128;-69
2023/11/23 00:25:27;;;;;;;2.50;1.08;;;13.00;96.70;;;;;;5062216;28;20037;-69
2023/11/23 00:27:55;;;;;;;2.03;0.70;;;13.00;96.70;;;;;;5070425;28;20089;-69
2023/11/23 00:30:25;;;;;;;1.35;0.50;;;13.00;96.70;;;;;;5055313;28;20044;-69
2023/11/23 00:32:54;;;;;;;2.08;0.57;;;13.00;96.70;;;;;;5058614;28;20452;-69
2023/11/23 00:35:23;;;;;;;1.50;0.40;;;13.10;96.70;;;;;;5063052;28;20720;-69
2023/11/23 00:37:54;;;;;;;1.65;0.50;;;13.10;96.70;;;;;;5062417;28;20037;-69
2023/11/23 00:40:22;;;;;;;1.45;0.50;;;13.10;96.70;;;;;;5062842;28;20080;-66
2023/11/23 00:42:51;;;;;;;3.67;0.65;;;13.10;96.70;;;;;;5061683;28;20040;-65
2023/11/23 00:45:19;;;;;;;1.00;0.40;;;13.00;96.70;;;;;;5075595;28;20050;-65
2023/11/23 00:47:47;;;;;;;1.42;0.40;;;13.00;96.70;;;;;;5064902;28;20076;-66
2023/11/23 00:50:16;;;;;;;4.63;0.80;;;13.00;96.70;;;;;;5061147;28;20533;-65
2023/11/23 00:52:44;;;;;;;1.25;0.77;;;13.00;96.70;;;;;;5059837;28;20374;-65
2023/11/23 00:55:14;;;;;;;1.55;0.50;;;13.00;96.70;;;;;;5066261;28;20040;-65
2023/11/23 00:57:43;;;;;;;1.92;0.55;;;12.90;96.70;;;;;;5071465;28;20048;-65
2023/11/23 01:00:16;;;;;;;1.90;0.50;;;12.90;96.70;;;;;;5063122;28;20059;-65
2023/11/23 01:02:46;;;;;;;1.35;0.52;;;12.80;96.70;;;;;;5053587;28;20090;-65
2023/11/23 01:05:15;;;;;;;2.55;0.47;;;12.80;96.70;;;;;;5052670;28;20052;-65
2023/11/23 01:07:43;;;;;;;2.42;1.13;;;12.80;96.70;;;;;;5066751;28;20059;-66
2023/11/23 01:10:13;;;;;;;1.05;0.40;;;12.80;96.70;;;;;;5056399;28;20060;-66
2023/11/23 01:12:43;;;;;;;2.13;0.70;;;12.80;96.70;;;;;;5068144;28;20404;-65
2023/11/23 01:15:12;;;;;;;2.17;0.77;;;12.70;96.70;;;;;;5061733;28;20044;-67
2023/11/23 01:17:40;;;;;;;4.45;0.60;;;12.70;96.70;;;;;;5063102;28;20047;-65
2023/11/23 01:20:10;;;;;;;2.13;0.40;;;12.70;96.70;;;;;;5052079;28;20037;-66
2023/11/23 01:22:38;;;;;;;3.35;0.80;;;12.70;96.70;;;;;;5061803;28;20051;-66
2023/11/23 01:25:08;;;;;;;3.03;0.70;;;12.60;96.70;;;;;;5067135;28;20159;-65
2023/11/23 01:27:37;;;;;;;1.27;0.65;;;12.60;96.70;;;;;;5062468;28;20102;-65
2023/11/23 01:30:08;;;;;;;2.90;0.80;;;12.60;96.70;;;;;;5062461;28;20060;-65
2023/11/23 01:32:37;;;;;;;4.88;0.80;;;12.60;96.70;;;;;;5058804;28;20754;-65
2023/11/23 01:35:06;;;;;;;5.18;0.90;;;12.60;96.70;;;;;;5060266;28;20111;-65
2023/11/23 01:37:35;;;;;;;1.98;0.70;;;12.60;96.70;;;;;;5059310;28;20074;-65
2023/11/23 01:40:05;;;;;;;2.92;0.50;;;12.60;96.70;;;;;;5063386;28;20040;-65
2023/11/23 01:42:34;;;;;;;2.88;0.80;;;12.60;96.70;;;;;;5053629;28;20044;-66
2023/11/23 01:45:02;;;;;;;1.17;0.55;;;12.70;96.70;;;;;;5057601;28;20033;-65
2023/11/23 01:47:35;;;;;;;0.90;0.50;;;12.60;96.70;;;;;;5067705;28;20056;-65
2023/11/23 01:50:04;;;;;;;2.00;0.70;;;12.60;96.70;;;;;;5058899;28;20174;-66
2023/11/23 01:52:32;;;;;;;2.30;0.60;;;12.60;96.70;;;;;;5054499;28;20043;-65
2023/11/23 01:55:01;;;;;;;3.65;0.68;;;12.60;96.70;;;;;;5074061;28;20036;-65
2023/11/23 01:57:33;;;;;;;4.47;0.68;;;12.60;96.70;;;;;;5053005;28;20040;-65
2023/11/23 02:00:03;;;;;;;2.22;0.80;;;12.60;96.70;;;;;;5072388;28;20032;-65
2023/11/23 02:02:44;;;;;;;3.15;0.93;;;12.60;96.70;;;;;;5073525;28;20078;-65
2023/11/23 02:05:12;;;;;;;2.88;0.60;;;12.60;96.70;;;;;;5080619;28;20036;-64
2023/11/23 02:07:41;;;;;;;2.88;0.55;;;12.50;96.70;;;;;;5065671;28;20043;-65
2023/11/23 02:10:10;;;;;;;2.50;0.95;;;12.50;96.70;;;;;;5051318;28;20110;-65
2023/11/23 02:12:39;;;;;;;1.92;0.60;;;12.50;96.70;;;;;;5049113;28;20041;-65
2023/11/23 02:15:09;;;;;;;2.63;0.70;;;12.50;96.70;;;;;;5076036;28;20405;-65
2023/11/23 02:17:39;;;;;;;2.83;0.80;;;12.40;96.70;;;;;;5064945;28;20049;-64
2023/11/23 02:20:10;;;;;;;4.10;0.70;;;12.40;96.70;;;;;;5054102;28;20538;-65
2023/11/23 02:22:38;;;;;;;2.88;0.77;;;12.40;96.70;;;;;;5054685;28;20131;-66
2023/11/23 02:25:08;;;;;;;2.67;0.75;;;12.40;96.70;;;;;;5071380;28;20067;-64
2023/11/23 02:27:37;;;;;;;1.00;0.60;;;12.40;96.70;;;;;;5052685;28;20057;-65
2023/11/23 02:30:07;;;;;;;1.48;0.60;;;12.40;96.70;;;;;;5064560;28;20048;-65
2023/11/23 02:32:36;;;;;;;1.85;0.70;;;12.40;96.70;;;;;;5056796;28;20515;-65
2023/11/23 02:35:04;;;;;;;6.95;0.93;;;12.30;96.70;;;;;;5072116;28;20033;-65
2023/11/23 02:37:33;;;;;;;4.03;1.10;;;12.20;96.70;;;;;;5048261;28;20558;-66
2023/11/23 02:40:01;;;;;;;3.28;0.73;;;12.30;96.70;;;;;;5071077;28;20435;-64
2023/11/23 02:42:31;;;;;;;2.97;0.68;;;12.20;96.70;;;;;;5052470;28;20597;-65
2023/11/23 02:44:59;;;;;;;1.40;0.63;;;12.20;96.70;;;;;;5050477;28;20485;-65
2023/11/23 02:47:27;;;;;;;1.65;0.60;;;12.20;96.70;;;;;;5059122;28;20040;-65
2023/11/23 02:49:56;;;;;;;2.80;0.82;;;12.30;96.70;;;;;;5077628;28;20044;-65
2023/11/23 02:52:24;;;;;;;3.80;0.80;;;12.20;96.70;;;;;;5055739;28;20417;-65
2023/11/23 02:54:53;;;;;;;1.90;0.60;;;12.20;96.70;;;;;;5061247;28;20052;-65
2023/11/23 02:57:21;;;;;;;3.53;0.70;;;12.20;96.70;;;;;;5055285;28;20119;-65
2023/11/23 02:59:51;;;;;;;3.25;0.68;;;12.20;96.70;;;;;;5072906;28;20047;-64
2023/11/23 03:02:20;;;;;;;1.42;0.70;;;12.20;96.70;;;;;;5054965;28;20099;-65
2023/11/23 03:04:48;;;;;;;2.65;0.80;;;12.20;96.70;;;;;;5065360;28;20071;-65
2023/11/23 03:07:17;;;;;;;3.83;0.95;;;12.20;96.70;;;;;;5059816;28;20041;-65
2023/11/23 03:09:46;;;;;;;1.90;0.63;;;12.20;96.70;;;;;;5056965;28;20047;-65
2023/11/23 03:12:14;;;;;;;3.25;0.65;;;12.10;96.70;;;;;;5082447;28;20066;-65
2023/11/23 03:14:42;;;;;;;2.85;1.10;;;12.10;96.70;;;;;;5060190;28;20041;-66
2023/11/23 03:17:12;;;;;;;3.25;0.90;;;12.20;96.70;;;;;;5078309;28;20048;-65
2023/11/23 03:19:40;;;;;;;1.10;0.68;;;12.20;96.70;;;;;;5071583;28;20045;-65
2023/11/23 03:22:09;;;;;;;4.25;0.90;;;12.20;96.70;;;;;;5058848;28;20090;-65
2023/11/23 03:24:37;;;;;;;1.70;0.60;;;12.20;96.70;;;;;;5065183;28;20404;-65
2023/11/23 03:27:05;;;;;;;1.98;0.80;;;12.20;96.70;;;;;;5057781;28;20045;-65
2023/11/23 03:29:33;;;;;;;3.95;0.82;;;12.10;96.70;;;;;;5071051;28;20051;-65
2023/11/23 03:32:02;;;;;;;2.13;0.98;;;12.10;96.70;;;;;;5057237;28;20079;-64
2023/11/23 03:34:32;;;;;;;2.28;0.80;;;12.10;96.70;;;;;;5065785;28;20054;-65
2023/11/23 03:37:00;;;;;;;1.83;0.70;;;12.10;96.70;;;;;;5070673;28;20554;-65
2023/11/23 03:39:30;;;;;;;1.20;0.68;;;12.10;96.70;;;;;;5066738;28;20043;-65
2023/11/23 03:41:58;;;;;;;3.78;0.85;;;12.10;96.70;;;;;;5054160;28;20389;-66
2023/11/23 03:44:27;;;;;;;2.00;0.68;;;12.00;96.70;;;;;;5082811;28;20412;-65
2023/11/23 03:46:56;;;;;;;1.83;0.80;;;12.00;96.70;;;;;;5052533;28;20094;-65
2023/11/23 03:49:24;;;;;;;0.93;0.60;;;12.00;96.70;;;;;;5058968;28;20076;-65
2023/11/23 03:51:54;;;;;;;2.15;1.13;;;12.10;96.70;;;;;;5050172;28;20532;-66
2023/11/23 03:54:22;;;;;;;4.22;1.35;;;12.00;96.70;;;;;;5050776;28;20080;-66
2023/11/23 03:56:50;;;;;;;2.50;0.90;;;12.00;96.70;;;;;;5066632;28;20045;-65
2023/11/23 03:59:18;;;;;;;1.40;0.60;;;12.00;96.70;;;;;;5050836;28;20049;-65
2023/11/23 04:01:47;;;;;;;1.55;0.47;;;12.00;96.70;;;;;;5081507;28;20044;-65
2023/11/23 04:04:16;;;;;;;1.70;0.82;;;12.00;96.70;;;;;;5060155;28;20045;-65
2023/11/23 04:06:45;;;;;;;2.70;0.70;;;12.00;96.70;;;;;;5069261;28;20546;-65
2023/11/23 04:09:17;;;;;;;2.00;0.60;;;12.00;96.70;;;;;;5072512;28;20064;-65
2023/11/23 04:11:46;;;;;;;2.25;0.60;;;12.00;96.70;;;;;;5053687;28;20052;-65
2023/11/23 04:14:14;;;;;;;1.95;0.77;;;12.00;96.70;;;;;;5068816;28;20045;-65
2023/11/23 04:16:43;;;;;;;2.20;0.80;;;12.00;96.70;;;;;;5064762;28;20055;-65
2023/11/23 04:19:12;;;;;;;1.35;0.50;;;12.00;96.70;;;;;;5052131;28;20041;-66
2023/11/23 04:21:40;;;;;;;1.10;0.60;;;12.00;96.70;;;;;;5051207;28;20129;-65
2023/11/23 04:24:09;;;;;;;1.02;0.65;;;12.00;96.70;;;;;;5063588;28;20040;-65
2023/11/23 04:26:41;;;;;;;3.38;0.60;;;11.90;96.70;;;;;;5055765;28;20064;-65
2023/11/23 04:29:10;;;;;;;1.50;0.63;;;11.90;96.70;;;;;;5068950;28;20049;-65
2023/11/23 04:31:38;;;;;;;2.17;0.70;;;11.90;96.70;;;;;;5075537;28;20032;-65
2023/11/23 04:34:07;;;;;;;2.33;0.75;;;11.90;96.70;;;;;;5068582;28;20043;-66
2023/11/23 04:36:36;;;;;;;2.92;0.60;;;11.80;96.70;;;;;;5069461;28;20043;-65
2023/11/23 04:39:05;;;;;;;2.08;0.70;;;11.80;96.70;;;;;;5063522;28;20110;-65
2023/11/23 04:41:33;;;;;;;2.22;0.70;;;11.80;96.70;;;;;;5055376;28;20053;-65
2023/11/23 04:44:03;;;;;;;1.77;0.60;;;11.80;96.70;;;;;;5051419;28;20040;-65
2023/11/23 04:46:32;;;;;;;1.50;0.90;;;11.80;96.70;;;;;;5071733;28;20050;-65
2023/11/23 04:49:01;;;;;;;2.72;0.75;;;11.80;96.70;;;;;;5075048;28;20052;-65
2023/11/23 04:51:30;;;;;;;3.90;0.60;;;11.80;96.70;;;;;;5056958;28;20061;-65
2023/11/23 04:53:58;;;;;;;3.97;0.70;;;11.80;96.70;;;;;;5051291;28;20053;-65
2023/11/23 04:56:26;;;;;;;2.22;0.60;;;11.80;96.70;;;;;;5068216;28;20048;-65
2023/11/23 04:58:54;;;;;;;1.75;0.50;;;11.90;96.70;;;;;;5068541;28;20041;-65
2023/11/23 05:01:24;;;;;;;1.60;0.50;;;11.90;96.70;;;;;;5072542;28;20048;-65
2023/11/23 05:03:53;;;;;;;2.03;0.50;;;11.90;96.70;;;;;;5068768;28;20586;-65
2023/11/23 05:06:23;;;;;;;3.45;0.50;;;11.90;96.70;;;;;;5058139;28;20057;-65
2023/11/23 05:08:52;;;;;;;0.95;0.52;;;11.90;96.70;;;;;;5078276;28;20048;-65
2023/11/23 05:11:20;;;;;;;2.63;0.82;;;12.00;96.70;;;;;;5088215;28;20044;-65
2023/11/23 05:13:49;;;;;;;0.85;0.30;;;12.00;96.70;;;;;;5069820;28;20123;-63
2023/11/23 05:16:17;;;;;;;1.55;0.70;;;12.00;96.70;;;;;;5061541;28;20048;-63
2023/11/23 05:18:47;;;;;;;2.95;0.70;;;12.00;96.70;;;;;;5071303;28;20683;-63
2023/11/23 05:21:16;;;;;;;1.80;0.50;;;12.00;96.70;;;;;;5073710;28;20048;-63
2023/11/23 05:23:44;;;;;;;3.45;1.88;;;12.00;96.70;;;;;;5049754;28;20501;-63
2023/11/23 05:26:12;;;;;;;5.13;2.58;;;11.90;96.70;;;;;;5054563;28;20047;-63
2023/11/23 05:28:40;;;;;;;4.05;1.50;;;11.90;96.70;;;;;;5087534;28;20076;-62
2023/11/23 05:31:09;;;;;;;3.67;1.83;;;11.80;96.70;;;;;;5087975;28;20052;-62
2023/11/23 05:33:37;;;;;;;4.82;2.45;;;11.80;96.70;;;;;;5064317;28;20132;-63
2023/11/23 05:36:10;;;;;;;5.43;2.08;;;11.80;96.70;;;;;;5069008;28;20075;-63
2023/11/23 05:38:38;;;;;;;2.20;1.00;;;11.80;96.70;;;;;;5079889;28;20102;-63
2023/11/23 05:41:06;;;;;;;2.85;0.90;;;11.80;96.70;;;;;;5072380;28;20037;-63
2023/11/23 05:43:35;;;;;;;1.95;1.10;;;11.80;96.70;;;;;;5062162;28;20056;-63
2023/11/23 05:46:03;;;;;;;2.08;0.70;;;11.80;96.70;;;;;;5052683;28;20049;-62
2023/11/23 05:48:32;;;;;;;2.58;0.73;;;11.80;96.70;;;;;;5063034;28;20504;-63
2023/11/23 05:51:00;;;;;;;2.58;0.85;;;11.70;96.70;;;;;;5052469;28;20091;-62
2023/11/23 05:53:31;;;;;;;2.70;0.77;;;11.70;96.70;;;;;;5067369;28;20127;-63
2023/11/23 05:56:01;;;;;;;1.77;0.80;;;11.70;96.70;;;;;;5049840;28;20041;-62
2023/11/23 05:58:29;;;;;;;2.58;0.80;;;11.60;96.70;;;;;;5049606;28;20041;-62
2023/11/23 06:00:57;;;;;;;1.40;0.60;;;11.60;96.70;;;;;;5054722;28;20045;-63
2023/11/23 06:03:37;;;;;;;3.63;1.10;;;11.60;96.70;;;;;;5057496;28;20049;-63
2023/11/23 06:06:07;;;;;;;1.33;0.63;;;11.70;96.70;;;;;;5049821;28;20041;-63
2023/11/23 06:08:38;;;;;;;3.53;0.65;;;11.70;96.70;;;;;;5051119;28;20568;-63
2023/11/23 06:11:06;;;;;;;3.45;0.80;;;11.70;96.70;;;;;;5067144;28;20413;-63
2023/11/23 06:13:34;;;;;;;2.10;0.68;;;11.70;96.70;;;;;;5048580;28;20447;-62
2023/11/23 06:16:04;;;;;;;0.90;0.43;;;11.80;96.70;;;;;;5061397;28;20174;-63
2023/11/23 06:18:33;;;;;;;2.13;0.52;;;11.80;96.70;;;;;;5066870;28;20059;-63
2023/11/23 06:21:02;;;;;;;2.53;0.63;;;11.80;96.70;;;;;;5049115;28;20048;-63
2023/11/23 06:23:30;;;;;;;1.10;0.60;;;11.80;96.70;;;;;;5067017;28;20047;-63
2023/11/23 06:26:01;;;;;;;2.33;0.40;;;11.80;96.70;;;;;;5052051;28;20044;-67
2023/11/23 06:28:29;;;;;;;1.08;0.40;;;11.80;96.70;;;;;;5051348;28;20500;-67
2023/11/23 06:30:57;;;;;;;1.08;0.45;;;11.80;96.70;;;;;;5051928;28;20519;-67
2023/11/23 06:33:27;;;;;;;2.47;0.50;;;11.80;96.70;;;;;;5048367;28;20136;-67
2023/11/23 06:35:55;;;;;;;2.30;0.50;;;11.80;96.70;;;;;;5060378;28;20437;-66
2023/11/23 06:38:24;;;;;;;1.33;0.60;;;11.80;96.70;;;;;;5076705;28;20033;-68
2023/11/23 06:40:55;;;;;;;1.63;0.57;;;11.80;96.70;;;;;;5077173;28;20036;-67
2023/11/23 06:43:25;;;;;;;2.15;0.50;;;11.90;96.70;;;;;;5048922;28;20404;-67
2023/11/23 06:45:54;;;;;;;3.60;0.60;;;11.80;96.70;;;;;;5065015;28;20184;-67
2023/11/23 06:48:23;;;;;;;0.73;0.40;;;11.80;96.70;;;;;;5073731;28;20084;-67
2023/11/23 06:50:52;;;;;;;1.00;0.30;;;11.80;96.70;;;;;;5070554;28;20048;-68
2023/11/23 06:53:21;;;;;;;1.30;0.50;;;11.90;96.70;;;;;;5063967;28;20128;-68
2023/11/23 06:55:50;;;;;;;1.27;0.40;;;11.90;96.70;;;;;;5067363;28;20044;-64
2023/11/23 06:58:20;;;;;;;1.85;0.70;;;11.90;96.70;;;;;;5055993;28;20052;-66
2023/11/23 07:00:50;;;;;;;3.38;0.52;;;12.00;96.70;;;;;;5066097;28;20107;-65
2023/11/23 07:03:21;;;;;;;1.02;0.40;;;12.00;96.70;;;;;;5059305;28;20041;-66
2023/11/23 07:05:50;;;;;;;0.77;0.47;;;12.00;96.70;;;;;;5068224;28;20128;-65
2023/11/23 07:08:18;;;;;;;1.30;0.45;;;12.10;96.70;;;;;;5060181;28;20901;-65
2023/11/23 07:10:47;;;;;;;1.80;0.60;;;12.10;96.70;;;;;;5060254;28;20127;-65
2023/11/23 07:13:16;;;;;;;2.25;0.77;;;12.10;96.70;;;;;;5066054;28;20036;-65
2023/11/23 07:15:44;;;;;;;3.83;0.60;;;12.20;96.70;;;;;;5053562;28;20053;-64
2023/11/23 07:18:14;;;;;;;2.05;0.55;;;12.20;96.70;;;;;;5049499;28;20064;-65
2023/11/23 07:20:48;;;;;;;1.48;0.60;;;12.20;96.70;;;;;;5066562;28;20663;-65
2023/11/23 07:23:16;;;;;;;1.67;0.68;;;12.20;96.70;;;;;;5048102;28;20060;-64
2023/11/23 07:25:45;;;;;;;1.02;0.60;;;12.30;96.70;;;;;;5050135;28;20045;-67
2023/11/23 07:28:13;;;;;;;2.17;0.63;;;12.40;96.70;;;;;;5058824;28;20528;-70
2023/11/23 07:30:42;;;;;;;1.35;0.60;;;12.40;96.70;;;;;;5074753;28;20053;-70
2023/11/23 07:33:11;;;;;;;1.85;0.50;;;12.40;96.70;;;;;;5068229;28;20048;-69
2023/11/23 07:35:46;;;;;;;3.10;0.47;;;12.50;96.70;;;;;;5071911;28;20059;-71
2023/11/23 07:38:15;;;;;;;1.15;0.50;;;12.50;96.70;;;;;;5075159;28;20467;-70
2023/11/23 07:40:46;;;;;;;0.90;0.40;;;12.60;96.70;;;;;;5064285;28;20032;-71
2023/11/23 07:43:14;;;;;;;2.17;0.40;;;12.70;96.70;;;;;;5073036;28;20789;-70
2023/11/23 07:45:43;;;;;;;1.10;0.30;;;12.70;96.70;;;;;;5060938;28;20482;-71
2023/11/23 07:48:13;;;;;;;2.35;0.47;;;12.80;96.70;;;;;;5077231;28;20048;-72
2023/11/23 07:50:44;;;;;;;0.90;0.43;;;12.80;96.70;;;;;;5087596;28;20041;-72
2023/11/23 07:53:12;;;;;;;3.13;0.50;;;12.90;96.70;;;;;;5085786;28;20511;-70
2023/11/23 07:55:41;;;;;;;0.88;0.38;;;13.00;96.70;;;;;;5074620;28;20380;-70
2023/11/23 07:58:09;;;;;;;2.05;0.60;;;13.00;96.70;;;;;;5070853;28;20075;-70
2023/11/23 08:00:40;;;;;;;2.40;0.80;;;13.10;96.70;;;;;;5072516;28;20041;-70
2023/11/23 08:03:10;;;;;;;3.38;0.73;;;13.20;96.70;;;;;;5062429;28;20143;-71
2023/11/23 08:05:38;;;;;;;3.05;0.40;;;13.20;96.70;;;;;;5053178;28;20423;-70
2023/11/23 08:08:10;;;;;;;1.30;0.80;;;13.30;96.70;;;;;;5076972;28;20724;-70
2023/11/23 08:10:39;;;;;;;1.27;0.47;;;13.40;96.70;;;;;;5079610;28;20051;-70
2023/11/23 08:13:08;;;;;;;2.22;0.52;;;13.50;96.70;;;;;;5070731;28;20126;-70
2023/11/23 08:15:36;;;;;;;2.38;0.80;;;13.50;96.70;;;;;;5079830;28;20040;-70
2023/11/23 08:18:06;;;;;;;1.50;0.60;;;13.60;96.70;;;;;;5075892;28;20119;-70
2023/11/23 08:20:37;;;;;;;2.53;0.60;;;13.60;96.70;;;;;;5081054;28;20051;-70
2023/11/23 08:23:12;;;;;;;3.22;0.65;;;13.70;96.70;;;;;;5080529;28;20047;-73
2023/11/23 08:25:40;;;;;;;3.80;0.60;;;13.70;96.70;;;;;;5088459;28;20060;-75
2023/11/23 08:28:09;;;;;;;1.67;0.50;;;13.80;96.70;;;;;;5084374;28;20051;-75
2023/11/23 08:30:38;;;;;;;1.70;0.50;;;13.90;96.70;;;;;;5090826;28;20091;-74
2023/11/23 08:33:08;;;;;;;2.75;0.60;;;13.90;96.70;;;;;;5083125;28;20055;-75
2023/11/23 08:35:38;;;;;;;0.80;0.40;;;14.00;96.70;;;;;;5079882;28;20102;-75
2023/11/23 08:38:06;;;;;;;3.35;0.40;;;14.10;96.70;;;;;;5079018;28;20042;-75
2023/11/23 08:40:36;;;;;;;1.05;0.45;;;14.20;96.70;;;;;;5071336;28;20533;-76
2023/11/23 08:43:08;;;;;;;0.90;0.30;;;14.30;96.70;;;;;;5081788;28;20160;-76
2023/11/23 08:45:36;;;;;;;1.60;0.30;;;14.40;96.70;;;;;;5074315;28;20703;-76
2023/11/23 08:48:05;;;;;;;2.53;0.52;;;14.60;96.70;;;;;;5079477;28;20762;-75
2023/11/23 08:50:34;;;;;;;2.40;0.40;;;14.60;96.70;;;;;;5072714;28;20048;-75
2023/11/23 08:53:05;;;;;;;2.40;0.93;;;14.70;96.70;;;;;;5061810;28;20045;-71
2023/11/23 08:55:34;;;;;;;5.63;0.70;;;14.70;96.70;;;;;;5062142;28;20040;-76
2023/11/23 08:58:03;;;;;;;2.30;0.52;;;14.80;96.70;;;;;;5086080;28;20515;-74
2023/11/23 09:00:32;;;;;;;0.88;0.32;;;14.90;96.70;;;;;;5073604;28;20128;-75
2023/11/23 09:03:00;;;;;;;0.70;0.30;;;15.10;96.70;;;;;;5089702;28;20051;-75
2023/11/23 09:05:30;;;;;;;0.80;0.45;;;15.10;96.70;;;;;;5075144;28;20057;-71
2023/11/23 09:08:00;;;;;;;1.67;0.35;;;15.20;96.70;;;;;;5052336;28;20072;-71
2023/11/23 09:10:29;;;;;;;0.82;0.40;;;15.20;96.70;;;;;;5071291;28;20041;-71
2023/11/23 09:13:01;;;;;;;0.88;0.40;;;15.40;96.70;;;;;;5081718;28;20074;-74
2023/11/23 09:15:30;;;;;;;1.00;0.50;;;15.40;96.70;;;;;;5052123;28;20045;-75
2023/11/23 09:17:58;;;;;;;1.10;0.60;;;15.50;96.70;;;;;;5050811;28;20041;-69
2023/11/23 09:20:27;;;;;;;0.82;0.40;;;15.60;96.70;;;;;;5050811;28;20094;-73
2023/11/23 09:22:56;;;;;;;2.03;0.30;;;15.70;96.70;;;;;;5082522;28;20051;-71
2023/11/23 09:25:24;;;;;;;0.28;0.22;;;15.70;96.70;;;;;;5071112;28;20488;-71
2023/11/23 09:27:53;;;;;;;0.65;0.20;;;15.80;96.70;;;;;;5057838;28;20131;-71
2023/11/23 09:30:23;;;;;;;11.50;1.25;;;15.80;96.70;;;;;;5057944;28;20143;-72
2023/11/23 09:32:52;;;;;;;6.55;0.70;;;15.90;96.70;;;;;;5086852;28;20051;-71
2023/11/23 09:35:21;;;;;;;0.65;0.30;;;15.90;96.70;;;;;;5087471;28;20566;-72
2023/11/23 09:37:53;;;;;;;1.23;0.30;;;15.90;96.70;;;;;;5067262;28;20116;-71
2023/11/23 09:40:23;;;;;;;1.95;0.40;;;15.90;96.70;;;;;;5068661;28;20063;-69
2023/11/23 09:42:51;;;;;;;0.82;0.30;;;15.90;96.70;;;;;;5079721;28;20046;-71
2023/11/23 09:45:20;;;;;;;1.95;0.50;;;16.00;96.70;;;;;;5078620;28;20033;-70
2023/11/23 09:47:56;;;;;;;0.77;0.20;;;16.20;96.70;;;;;;5065007;28;20435;-71
2023/11/23 09:50:28;;;;;;;0.98;0.43;;;16.30;96.70;;;;;;5069412;28;20057;-72
2023/11/23 09:53:03;;;;;;;1.60;0.40;;;16.30;96.70;;;;;;5062404;28;20400;-70
2023/11/23 09:55:31;;;;;;;2.03;0.40;;;16.40;96.70;;;;;;5082110;28;20051;-70
2023/11/23 09:57:59;;;;;;;3.08;0.40;;;16.40;96.70;;;;;;5082283;28;20123;-70
2023/11/23 10:00:29;;;;;;;2.20;0.40;;;16.40;96.70;;;;;;5069127;28;20052;-70
2023/11/23 10:02:59;;;;;;;1.15;0.20;;;16.50;96.70;;;;;;5068612;28;20036;-71
2023/11/23 10:05:29;;;;;;;0.63;0.25;;;16.50;96.70;;;;;;5069511;28;20052;-72
2023/11/23 10:07:58;;;;;;;0.73;0.30;;;16.50;96.70;;;;;;5069456;28;20090;-71
2023/11/23 10:10:27;;;;;;;3.63;1.02;;;16.50;96.70;;;;;;5083866;28;20122;-71
2023/11/23 10:12:55;;;;;;;22.88;2.90;;;16.60;96.70;;;;;;5080291;28;20082;-70
2023/11/23 10:15:26;;;;;;;6.63;0.90;;;16.60;96.70;;;;;;5077618;28;20461;-71
2023/11/23 10:17:54;;;;;;;3.25;1.00;;;16.60;96.70;;;;;;5063180;28;20102;-71
2023/11/23 10:20:26;;;;;;;6.82;0.50;;;16.70;96.70;;;;;;5084227;28;20056;-71
2023/11/23 10:22:55;;;;;;;0.82;0.38;;;16.80;96.70;;;;;;5068397;28;20037;-72
2023/11/23 10:25:25;;;;;;;4.03;0.50;;;16.80;96.70;;;;;;5068636;28;20397;-72
2023/11/23 10:27:56;;;;;;;7.03;1.00;;;16.80;96.70;;;;;;5077488;28;20055;-71
2023/11/23 10:30:24;;;;;;;2.90;0.50;;;17.00;96.70;;;;;;5070510;28;20161;-71
2023/11/23 10:32:54;;;;;;;2.13;0.40;;;17.00;96.70;;;;;;5077798;28;20040;-72
2023/11/23 10:35:28;;;;;;;2.78;0.57;;;17.00;96.70;;;;;;5074263;28;20069;-71
2023/11/23 10:37:57;;;;;;;45.60;5.43;;;17.00;96.70;;;;;;5078133;28;20058;-71
2023/11/23 10:40:25;;;;;;;2.42;0.70;;;17.00;96.70;;;;;;5085507;28;20060;-71
2023/11/23 10:42:54;;;;;;;1.10;0.47;;;17.00;96.70;;;;;;5067951;28;20040;-71
2023/11/23 10:45:22;;;;;;;2.80;0.77;;;17.00;96.70;;;;;;5068008;28;20921;-71
2023/11/23 10:47:54;;;;;;;1.25;0.75;;;17.00;96.70;;;;;;5067835;28;20503;-71
2023/11/23 10:50:24;;;;;;;1.08;0.80;;;17.00;96.70;;;;;;5076095;28;20658;-71
2023/11/23 10:52:57;;;;;;;2.28;1.50;;;17.10;96.70;;;;;;5067747;28;20040;-70
2023/11/23 10:55:27;;;;;;;2.25;0.70;;;17.10;96.70;;;;;;5074459;28;20388;-72
2023/11/23 10:58:08;;;;;;;1.75;0.60;;;17.20;96.70;;;;;;5068334;28;20052;-71
2023/11/23 11:00:38;;;;;;;2.95;0.82;;;17.20;96.70;;;;;;5085034;28;20059;-72
2023/11/23 11:03:09;;;;;;;17.48;2.17;;;17.20;96.70;;;;;;5067253;28;20052;-71
2023/11/23 11:05:45;;;;;;;8.70;1.58;;;17.20;96.70;;;;;;5080028;28;20071;-74
2023/11/23 11:08:20;;;;;;;2.60;0.70;;;17.30;96.70;;;;;;5075165;28;20056;-76
2023/11/23 11:10:51;;;;;;;1.33;0.50;;;17.40;96.70;;;;;;5068331;28;20044;-75
2023/11/23 11:13:22;;;;;;;1.55;0.40;;;17.40;96.70;;;;;;5069031;28;20048;-75
2023/11/23 11:15:54;;;;;;;0.93;0.55;;;17.50;96.70;;;;;;5078823;28;20058;-75
2023/11/23 11:18:25;;;;;;;1.10;0.77;;;17.60;96.70;;;;;;5086624;28;20123;-76
2023/11/23 11:21:01;;;;;;;1.15;0.63;;;17.70;96.70;;;;;;5080171;28;20101;-76
2023/11/23 11:23:41;;;;;;;2.80;1.20;;;17.80;96.70;;;;;;5077522;28;20438;-76
2023/11/23 11:26:11;;;;;;;1.48;1.10;;;17.90;96.70;;;;;;5068382;28;20557;-76
2023/11/23 11:28:41;;;;;;;1.05;0.80;;;18.00;96.70;;;;;;5077514;28;20048;-76
2023/11/23 11:31:13;;;;;;;0.68;0.40;;;18.10;96.70;;;;;;5047522;28;20072;-77
2023/11/23 11:33:42;;;;;;;0.88;0.40;;;18.30;96.70;;;;;;5077015;28;20048;-77
2023/11/23 11:36:12;;;;;;;2.00;0.82;;;18.50;96.70;;;;;;5079929;28;20093;-75
2023/11/23 11:38:54;;;;;;;5.47;1.10;;;18.50;96.70;;;;;;5081431;28;20044;-76
2023/11/23 11:41:28;;;;;;;13.50;2.05;;;18.60;96.70;;;;;;5084942;28;20036;-76
2023/11/23 11:43:59;;;;;;;2.08;0.57;;;18.70;96.70;;;;;;5069455;28;20061;-76
2023/11/23 11:46:28;;;;;;;1.67;0.52;;;18.80;96.70;;;;;;5087226;28;20049;-77
2023/11/23 11:49:00;;;;;;;2.95;0.70;;;18.90;96.70;;;;;;5083240;28;20458;-76
2023/11/23 11:51:30;;;;;;;2.67;1.38;;;19.00;96.70;;;;;;5066862;28;20048;-73
2023/11/23 11:54:04;;;;;;;2.38;1.45;;;19.00;96.70;;;;;;5057575;28;20041;-74
2023/11/23 11:56:33;;;;;;;2.85;1.95;;;19.10;96.70;;;;;;5058404;28;20072;-71
2023/11/23 11:59:04;;;;;;;1.75;0.90;;;19.20;96.70;;;;;;5073064;28;20049;-73
2023/11/23 12:01:33;;;;;;;1.85;0.68;;;19.20;96.70;;;;;;5063429;28;20044;-70
2023/11/23 12:04:02;;;;;;;1.70;0.77;;;19.30;96.70;;;;;;5071678;28;20404;-72
2023/11/23 12:06:35;;;;;;;1.85;0.90;;;19.20;96.70;;;;;;5052828;28;20041;-74
2023/11/23 12:09:12;;;;;;;1.02;0.68;;;19.30;96.70;;;;;;5059650;28;20048;-69
2023/11/23 12:11:43;;;;;;;2.20;0.60;;;19.30;96.70;;;;;;5061830;28;20151;-72
2023/11/23 12:14:12;;;;;;;3.40;0.40;;;19.30;96.70;;;;;;5066030;28;20028;-73
2023/11/23 12:16:41;;;;;;;1.27;0.40;;;19.40;96.70;;;;;;5062447;28;20139;-74
2023/11/23 12:19:24;;;;;;;1.40;0.70;;;19.40;96.70;;;;;;5083106;28;20051;-73
2023/11/23 12:21:55;;;;;;;1.80;1.10;;;19.50;96.70;;;;;;5054615;28;20045;-72
2023/11/23 12:24:26;;;;;;;9.07;1.25;;;19.50;96.70;;;;;;5062974;28;20503;-71
2023/11/23 12:26:56;;;;;;;1.55;0.50;;;19.60;96.70;;;;;;5073146;28;20051;-71
2023/11/23 12:29:25;;;;;;;1.27;0.60;;;19.60;96.70;;;;;;5083744;28;20043;-72
2023/11/23 12:31:58;;;;;;;0.95;0.60;;;19.70;96.70;;;;;;5079651;28;20061;-73
2023/11/23 12:34:29;;;;;;;1.63;0.98;;;19.60;96.70;;;;;;5081201;28;20423;-73
2023/11/23 12:36:58;;;;;;;1.67;0.73;;;19.80;96.70;;;;;;5075229;28;20650;-73
2023/11/23 12:39:28;;;;;;;13.07;1.85;;;19.80;96.70;;;;;;5072060;28;20048;-72
2023/11/23 12:41:57;;;;;;;3.03;0.98;;;19.90;96.70;;;;;;5081478;28;20515;-74
2023/11/23 12:44:26;;;;;;;3.17;0.65;;;19.90;96.70;;;;;;5079317;28;20032;-73
2023/11/23 12:46:54;;;;;;;1.67;0.60;;;19.90;96.70;;;;;;5088911;28;20040;-71
2023/11/23 12:49:24;;;;;;;2.58;0.60;;;19.90;96.70;;;;;;5078477;28;20079;-72
2023/11/23 12:51:53;;;;;;;2.15;0.77;;;19.90;96.70;;;;;;5081443;28;20131;-70
2023/11/23 12:54:22;;;;;;;2.63;0.77;;;19.90;96.70;;;;;;5081408;28;20523;-73
2023/11/23 12:56:54;;;;;;;3.85;0.68;;;20.00;96.70;;;;;;5077418;28;20047;-72